الصفحة الرئيسية
METAR-TAF:

METAR-TAF

مطار :

بانغي, جمهورية أفريقيا الوسطى

دائرة عرض: 04-24N, خط طول: 018-31E, ارتفاع: 365 متر

مراقبة الطقس الحالي

تاريخ ووقت الإصدار 44 دقيقة قبل الساعة 15:00UTC
ريح 6 عقدة من الشمال الشرقي
درجة الحرارة 33°درجة مئوية
الرطوبة 39%
ضغط 1009 hPa
الرؤية: 7000 متر

METAR: FEFF 141500Z 04006KT 7000 NSC 33/17 Q1009 BECMG 3000 HZ

زمن: 16:44 (15:44 UTC)

توقعات

تاريخ ووقت الإصدار 4ساعات و 44 دقيقة قبل الساعة 11:00UTC
التوقعات صالحة من14 الساعة 12 UTC إلى 15 الساعة 18 UTC
ريح 3 عقدةمن اتجاهات متغيرة
غيوم قليلة على ارتفاع 2300 قدم
غيوم قليلة على ارتفاع 3300 قدم, مزنة ركامية.
نظرية الاحتمالات 30% :
مؤقت
من 14 الساعة 13 UTC إلى 14 الساعة 15 UTC
ريح 15 عقدةمن اتجاهات متغيرة
عاصفة رعدية
أصبح
من 14 الساعة 16 UTC إلى 14 الساعة 17 UTC
الرؤية: 3000 متر
غيوم مفككة على ارتفاع 800 قدم
العجاج
أصبح
من 14 الساعة 19 UTC إلى 14 الساعة 21 UTC
الرؤية 10 كم أو أكثر
الغيوم لا تقل 1500 م ولا وجود لمزنة ركامية السحاب الأسود

TAF: FEFF 141100Z 1412/1518 VRB03KT FEW023 FEW033CB PROB30 TEMPO 1413/1415 VRB15KT TS BECMG 1416/1417 3000 HZ BKN008 BECMG 1419/1421 CAVOK

أرصاد الطقس والتوقعات من أكثر من 4000 مطار (تقارير الطقس للمطار METAR والتنبؤ بالطقس بالمطارTAF).

المحطات المتاحة هي النقط الصفراء والحمراء على الخريطة.

حرك المؤشر فوق النقطة لمعرفة اسم المحطة.

ثم انقر لمعرفة أرصاد وتوقعات الطقس.

لتغيير الخارطة: اضغط على الأزرار الخضراء مع رمز الصليب الأسود للتكبير. على الزر الأخضر مع شرطة للتصغير، أو على الأسهم الخضراء للخرائط المجاورة.


METAR-TAF: